createdAt,value
2023-05-15T00:01:34.037Z,8.90
2023-05-15T00:04:37.976Z,7.13
2023-05-15T00:07:41.929Z,7.77
2023-05-15T00:10:54.106Z,8.63
2023-05-15T00:14:03.121Z,10.70
2023-05-15T00:17:06.133Z,7.67
2023-05-15T00:20:11.431Z,7.83
2023-05-15T00:23:14.032Z,9.20
2023-05-15T00:26:16.631Z,10.27
2023-05-15T00:29:19.256Z,9.23
2023-05-15T00:32:21.959Z,8.00
2023-05-15T00:35:26.292Z,12.03
2023-05-15T00:38:29.010Z,7.83
2023-05-15T00:41:33.044Z,8.70
2023-05-15T00:44:37.047Z,9.43
2023-05-15T00:47:41.380Z,8.90
2023-05-15T00:50:45.680Z,8.13
2023-05-15T00:53:48.515Z,8.80
2023-05-15T00:56:52.510Z,8.57
2023-05-15T00:59:57.727Z,8.93
2023-05-15T01:03:00.650Z,15.13
2023-05-15T01:06:05.113Z,8.27
2023-05-15T01:09:08.690Z,9.63
2023-05-15T01:12:15.781Z,8.53
2023-05-15T01:15:18.554Z,10.43
2023-05-15T01:18:21.525Z,8.77
2023-05-15T01:21:46.835Z,12.83
2023-05-15T01:25:28.576Z,10.40
2023-05-15T01:28:39.239Z,8.90
2023-05-15T01:31:45.072Z,8.90
2023-05-15T01:34:58.374Z,11.40
2023-05-15T01:38:09.632Z,14.60
2023-05-15T01:41:22.211Z,9.53
2023-05-15T01:44:29.787Z,11.47
2023-05-15T01:47:37.873Z,12.10
2023-05-15T01:50:41.900Z,11.40
2023-05-15T01:53:46.464Z,8.97
2023-05-15T01:56:49.353Z,12.07
2023-05-15T01:59:54.585Z,8.47
2023-05-15T02:02:58.697Z,8.70
2023-05-15T02:06:02.592Z,7.93
2023-05-15T02:09:05.818Z,9.77
2023-05-15T02:12:09.346Z,10.60
2023-05-15T02:15:14.366Z,10.90
2023-05-15T02:18:17.243Z,12.20
2023-05-15T02:21:19.827Z,9.07
2023-05-15T02:24:22.426Z,9.37
2023-05-15T02:27:28.903Z,12.27
2023-05-15T02:30:39.496Z,12.43
2023-05-15T02:33:51.775Z,9.97
2023-05-15T02:36:58.942Z,8.40
2023-05-15T02:40:02.736Z,12.47
2023-05-15T02:43:06.467Z,9.97
2023-05-15T02:46:11.634Z,13.17
2023-05-15T02:49:15.175Z,11.43
2023-05-15T02:52:17.989Z,12.27
2023-05-15T02:55:20.930Z,14.40
2023-05-15T02:58:23.535Z,9.83
2023-05-15T03:01:27.526Z,12.43
2023-05-15T03:04:30.327Z,10.60
2023-05-15T03:07:33.003Z,10.47
2023-05-15T03:10:35.576Z,14.23
2023-05-15T03:13:38.147Z,12.43
2023-05-15T03:16:42.942Z,12.57
2023-05-15T03:19:45.694Z,10.50
2023-05-15T03:22:48.304Z,12.20
2023-05-15T03:25:50.912Z,9.10
2023-05-15T03:28:53.482Z,13.63
2023-05-15T03:31:57.559Z,11.67
2023-05-15T03:35:00.835Z,9.23
2023-05-15T03:38:03.538Z,13.83
2023-05-15T03:41:06.157Z,12.30
2023-05-15T03:44:08.770Z,11.93
2023-05-15T03:47:12.688Z,9.60
2023-05-15T03:50:15.448Z,14.70
2023-05-15T03:53:18.054Z,12.33
2023-05-15T03:56:21.266Z,12.27
2023-05-15T03:59:23.870Z,9.90
2023-05-15T04:02:28.202Z,13.37
2023-05-15T04:05:30.872Z,15.90
2023-05-15T04:08:33.524Z,11.67
2023-05-15T04:11:36.673Z,11.10
2023-05-15T04:14:39.278Z,10.87
2023-05-15T04:17:43.283Z,10.03
2023-05-15T04:20:45.939Z,13.77
2023-05-15T04:23:48.552Z,11.20
2023-05-15T04:26:51.209Z,12.47
2023-05-15T04:29:53.822Z,11.87
2023-05-15T04:32:57.925Z,14.00
2023-05-15T04:36:00.679Z,16.53
2023-05-15T04:39:03.374Z,13.37
2023-05-15T04:42:06.659Z,11.33
2023-05-15T04:45:10.268Z,13.27
2023-05-15T04:48:14.228Z,14.37
2023-05-15T04:51:16.881Z,12.30
2023-05-15T04:54:19.538Z,14.17
2023-05-15T04:57:22.461Z,11.20
2023-05-15T05:00:25.245Z,11.53
2023-05-15T05:03:29.319Z,10.83
2023-05-15T05:06:31.996Z,10.70
2023-05-15T05:09:35.174Z,14.47
2023-05-15T05:12:37.772Z,9.37
2023-05-15T05:15:40.418Z,10.03
2023-05-15T05:18:44.448Z,11.40
2023-05-15T05:21:47.076Z,16.90
2023-05-15T05:24:49.673Z,13.50
2023-05-15T05:27:52.338Z,12.73
2023-05-15T05:30:54.960Z,16.13
2023-05-15T05:33:58.882Z,12.83
2023-05-15T05:37:01.528Z,11.23
2023-05-15T05:40:06.572Z,12.07
2023-05-15T05:43:09.222Z,10.17
2023-05-15T05:46:11.909Z,12.07
2023-05-15T05:49:15.861Z,12.63
2023-05-15T05:52:18.428Z,8.67
2023-05-15T05:55:21.094Z,8.97
2023-05-15T05:58:26.097Z,11.13
2023-05-15T06:01:29.128Z,10.90
2023-05-15T06:04:34.181Z,9.13
2023-05-15T06:07:37.078Z,8.17
2023-05-15T06:10:39.923Z,9.50
2023-05-15T06:13:43.388Z,8.70
2023-05-15T06:16:46.054Z,9.43
2023-05-15T06:19:50.020Z,9.13
2023-05-15T06:22:52.612Z,8.80
2023-05-15T06:25:55.363Z,8.87
2023-05-15T06:28:57.960Z,15.30
2023-05-15T06:32:00.544Z,10.43
2023-05-15T06:35:04.855Z,8.10
2023-05-15T06:38:07.465Z,11.30
2023-05-15T06:41:10.120Z,7.57
2023-05-15T06:44:12.704Z,7.83
2023-05-15T06:47:15.305Z,7.80
2023-05-15T06:50:19.245Z,6.47
2023-05-15T06:53:21.943Z,5.20
2023-05-15T06:56:25.599Z,9.30
2023-05-15T06:59:28.315Z,5.97
2023-05-15T07:02:31.029Z,9.00
2023-05-15T07:05:34.967Z,6.07
2023-05-15T07:08:37.576Z,4.53
2023-05-15T07:11:42.118Z,12.20
2023-05-15T07:14:44.748Z,3.67
2023-05-15T07:17:47.389Z,3.27
2023-05-15T07:20:51.325Z,3.57
2023-05-15T07:23:53.927Z,4.13
2023-05-15T07:26:58.800Z,5.30
2023-05-15T07:30:03.373Z,3.03
2023-05-15T07:33:06.112Z,5.90
2023-05-15T07:36:10.533Z,4.13
2023-05-15T07:39:13.257Z,4.60
2023-05-15T07:42:16.018Z,4.33
2023-05-15T07:45:18.681Z,6.17
2023-05-15T07:48:21.662Z,3.47
2023-05-15T07:51:25.627Z,4.83
2023-05-15T07:54:30.000Z,5.40
2023-05-15T07:57:32.796Z,3.87
2023-05-15T08:00:35.406Z,3.00
2023-05-15T08:03:38.041Z,3.90
2023-05-15T08:06:42.775Z,3.40
2023-05-15T08:09:47.087Z,7.63
2023-05-15T08:12:50.580Z,5.67
2023-05-15T08:15:53.209Z,6.33
2023-05-15T08:19:01.048Z,5.07
2023-05-15T08:22:05.347Z,6.47
2023-05-15T08:25:09.109Z,5.67
2023-05-15T08:28:11.834Z,4.83
2023-05-15T08:31:14.550Z,5.80
2023-05-15T08:34:17.166Z,5.63
2023-05-15T08:37:21.153Z,3.40
2023-05-15T08:40:38.484Z,6.17
2023-05-15T08:43:43.929Z,5.87
2023-05-15T08:46:48.454Z,3.30
2023-05-15T08:50:00.524Z,4.30
2023-05-15T08:53:05.253Z,5.63
2023-05-15T08:56:08.168Z,4.90
2023-05-15T08:59:11.332Z,3.70
2023-05-15T09:02:14.145Z,5.33
2023-05-15T09:05:16.751Z,4.10
2023-05-15T09:08:23.612Z,5.18
2023-05-15T09:11:27.891Z,6.72
2023-05-15T09:14:30.648Z,4.93
2023-05-15T09:17:33.317Z,6.25
2023-05-15T09:20:37.634Z,6.28
2023-05-15T09:23:41.669Z,3.20
2023-05-15T09:26:44.453Z,3.72
2023-05-15T09:29:47.507Z,4.00
2023-05-15T09:32:51.596Z,5.95
2023-05-15T09:35:54.210Z,3.35
2023-05-15T09:39:01.979Z,5.38
2023-05-15T09:42:08.425Z,5.63
2023-05-15T09:45:18.739Z,8.68
2023-05-15T09:48:22.033Z,4.45
2023-05-15T09:51:24.950Z,5.55
2023-05-15T09:54:29.949Z,9.07
2023-05-15T09:57:32.790Z,5.30
2023-05-15T10:00:35.777Z,4.22
2023-05-15T10:03:38.416Z,5.55
2023-05-15T10:06:43.422Z,5.93
2023-05-15T10:09:47.523Z,7.88
2023-05-15T10:12:52.147Z,6.55
2023-05-15T10:15:56.205Z,5.05
2023-05-15T10:18:59.719Z,11.00
2023-05-15T10:22:03.185Z,3.97
2023-05-15T10:25:14.313Z,4.43
2023-05-15T10:43:54.859Z,4.57
2023-05-15T10:46:57.609Z,4.32
2023-05-15T10:50:00.476Z,8.27
2023-05-15T10:53:03.162Z,4.82
2023-05-15T10:56:06.485Z,3.28
2023-05-15T10:59:12.342Z,4.78
2023-05-15T11:02:23.165Z,5.53
2023-05-15T11:05:26.541Z,8.27
2023-05-15T11:08:29.733Z,6.50
2023-05-15T11:12:06.614Z,10.75
2023-05-15T11:15:23.160Z,5.97
2023-05-15T11:18:26.776Z,6.20
2023-05-15T11:21:33.270Z,6.72
2023-05-15T11:24:50.853Z,5.40
2023-05-15T11:27:56.269Z,6.88
2023-05-15T11:31:07.157Z,5.75
2023-05-15T11:34:09.841Z,6.20
2023-05-15T11:37:18.435Z,7.25
2023-05-15T11:40:23.499Z,4.88
2023-05-15T11:43:27.458Z,3.03
2023-05-15T11:46:33.990Z,6.43
2023-05-15T11:49:36.639Z,4.28
2023-05-15T11:52:40.085Z,4.75
2023-05-15T11:55:44.121Z,5.22
2023-05-15T11:58:49.757Z,4.55
2023-05-15T12:01:53.850Z,5.57
2023-05-15T12:04:56.465Z,7.30
2023-05-15T12:07:59.417Z,9.23
2023-05-15T12:11:02.886Z,4.40
2023-05-15T12:14:05.562Z,5.22
2023-05-15T12:17:09.539Z,8.70
2023-05-15T12:20:15.936Z,6.63
2023-05-15T12:23:21.607Z,4.82
2023-05-15T12:26:26.346Z,4.57
2023-05-15T12:29:29.550Z,6.43
2023-05-15T12:32:36.019Z,6.57
2023-05-15T12:35:43.884Z,11.68
2023-05-15T12:38:46.553Z,6.78
2023-05-15T12:41:49.933Z,19.45
2023-05-15T12:44:53.217Z,20.83
2023-05-15T12:47:59.704Z,7.15
2023-05-15T12:51:07.133Z,5.68
2023-05-15T12:54:19.083Z,5.85
2023-05-15T12:57:22.124Z,3.92
2023-05-15T13:00:25.460Z,12.80
2023-05-15T13:03:30.529Z,12.73
2023-05-15T13:06:44.965Z,6.45
2023-05-15T13:10:03.286Z,9.15
2023-05-15T13:13:06.007Z,4.43
2023-05-15T13:16:18.916Z,5.97
2023-05-15T13:19:22.916Z,6.97
2023-05-15T13:22:26.672Z,4.97
2023-05-15T13:25:32.120Z,10.68
2023-05-15T13:28:35.419Z,11.82
2023-05-15T13:31:38.086Z,4.00
2023-05-15T13:34:42.030Z,3.97
2023-05-15T13:37:44.722Z,4.00
2023-05-15T13:40:47.312Z,6.22
2023-05-15T13:43:49.984Z,6.60
2023-05-15T13:46:52.677Z,6.45
2023-05-15T13:49:56.640Z,3.95
2023-05-15T13:52:59.260Z,5.50
2023-05-15T13:56:01.986Z,7.93
2023-05-15T13:59:04.621Z,10.07
2023-05-15T14:02:07.282Z,8.75
2023-05-15T14:05:12.244Z,10.38
2023-05-15T14:08:15.716Z,13.40
2023-05-15T14:11:18.320Z,10.50
2023-05-15T14:14:21.000Z,13.07
2023-05-15T14:17:23.673Z,11.00
2023-05-15T14:20:27.861Z,8.00
2023-05-15T14:23:30.711Z,9.23
2023-05-15T14:26:33.381Z,15.27
2023-05-15T14:29:36.125Z,9.57
2023-05-15T14:32:38.854Z,8.77
2023-05-15T14:35:42.806Z,16.00
2023-05-15T14:38:47.822Z,13.53
2023-05-15T14:41:50.480Z,17.10
2023-05-15T14:44:53.058Z,13.30
2023-05-15T14:47:55.834Z,12.73
2023-05-15T14:51:01.053Z,15.97
2023-05-15T14:54:04.897Z,12.40
2023-05-15T14:57:07.993Z,26.63
2023-05-15T15:00:13.266Z,23.70
2023-05-15T15:03:16.034Z,18.97
2023-05-15T15:06:20.069Z,14.93
2023-05-15T15:09:22.671Z,15.03
2023-05-15T15:12:26.181Z,12.50
2023-05-15T15:15:29.006Z,12.17
2023-05-15T15:18:31.762Z,16.33
2023-05-15T15:21:36.823Z,11.97
2023-05-15T15:24:39.425Z,14.87
2023-05-15T15:27:42.036Z,15.30
2023-05-15T15:30:44.607Z,13.07
2023-05-15T15:33:47.181Z,15.40
2023-05-15T15:36:51.331Z,12.53
2023-05-15T15:39:54.147Z,11.87
2023-05-15T15:42:56.819Z,14.23
2023-05-15T15:45:59.448Z,21.97
2023-05-15T15:49:03.755Z,16.23
2023-05-15T15:52:08.546Z,20.33
2023-05-15T15:55:11.288Z,16.60
2023-05-15T15:58:13.903Z,14.93
2023-05-15T16:01:16.629Z,13.10
2023-05-15T16:04:19.257Z,13.67
2023-05-15T16:07:23.172Z,12.67
2023-05-15T16:10:25.832Z,17.77
2023-05-15T16:13:28.438Z,25.47
2023-05-15T16:16:31.469Z,14.03
2023-05-15T16:19:34.950Z,14.20
2023-05-15T16:22:41.443Z,17.47
2023-05-15T16:25:45.244Z,10.70
2023-05-15T16:28:47.848Z,15.37
2023-05-15T16:31:50.945Z,11.77
2023-05-15T16:34:53.586Z,12.13
2023-05-15T16:37:57.537Z,9.73
2023-05-15T16:41:00.098Z,7.70
2023-05-15T16:44:03.248Z,17.30
2023-05-15T16:47:06.226Z,9.90
2023-05-15T16:50:09.535Z,6.57
2023-05-15T16:53:14.873Z,7.33
2023-05-15T16:56:17.504Z,7.00
2023-05-15T16:59:20.089Z,6.53
2023-05-15T17:02:22.850Z,6.57
2023-05-15T17:05:25.534Z,20.57
2023-05-15T17:08:29.545Z,7.77
2023-05-15T17:11:32.152Z,4.17
2023-05-15T17:14:34.744Z,13.37
2023-05-15T17:17:37.389Z,8.70
2023-05-15T17:20:40.043Z,12.57
2023-05-15T17:23:43.965Z,9.40
2023-05-15T17:26:46.593Z,8.20
2023-05-15T17:29:49.429Z,9.60
2023-05-15T17:32:52.530Z,9.93
2023-05-15T17:35:55.162Z,10.20
2023-05-15T17:38:59.365Z,11.97
2023-05-15T17:42:03.044Z,7.83
2023-05-15T17:45:06.376Z,12.63
2023-05-15T17:48:09.090Z,13.90
2023-05-15T17:51:11.768Z,11.43
2023-05-15T17:54:15.744Z,9.60
2023-05-15T17:57:18.363Z,13.13
2023-05-15T18:00:21.324Z,16.33
2023-05-15T18:03:24.389Z,19.27
2023-05-15T18:06:28.145Z,16.00
2023-05-15T18:09:32.142Z,17.50
2023-05-15T18:12:35.195Z,15.60
2023-05-15T18:15:37.944Z,9.37
2023-05-15T18:18:40.650Z,9.13
2023-05-15T18:21:43.578Z,11.03
2023-05-15T18:24:47.669Z,10.10
2023-05-15T18:27:50.594Z,11.63
2023-05-15T18:30:53.382Z,13.53
2023-05-15T18:33:55.993Z,10.10
2023-05-15T18:36:59.292Z,11.03
2023-05-15T18:40:03.329Z,8.03
2023-05-15T18:43:06.280Z,17.63
2023-05-15T18:46:08.851Z,8.33
2023-05-15T18:49:11.487Z,7.67
2023-05-15T18:52:14.116Z,7.40
2023-05-15T18:55:19.228Z,10.13
2023-05-15T18:58:21.906Z,9.17
2023-05-15T19:01:24.560Z,13.80
2023-05-15T19:04:27.176Z,8.73
2023-05-15T19:07:29.859Z,8.87
2023-05-15T19:10:33.779Z,13.63
2023-05-15T19:13:36.568Z,10.17
2023-05-15T19:16:39.164Z,8.57
2023-05-15T19:19:41.853Z,9.57
2023-05-15T19:22:44.470Z,10.87
2023-05-15T19:25:48.452Z,12.27
2023-05-15T19:28:52.703Z,11.87
2023-05-15T19:31:55.381Z,10.07
2023-05-15T19:34:58.033Z,8.50
2023-05-15T19:38:00.615Z,9.47
2023-05-15T19:41:04.740Z,11.10
2023-05-15T19:44:08.185Z,8.40
2023-05-15T19:47:10.769Z,11.57
2023-05-15T19:50:13.881Z,13.57
2023-05-15T19:53:16.505Z,10.67
2023-05-15T19:56:21.427Z,9.57
2023-05-15T19:59:24.019Z,9.50
2023-05-15T20:02:26.656Z,9.40
2023-05-15T20:05:29.437Z,14.60
2023-05-15T20:08:32.126Z,14.43
2023-05-15T20:11:36.088Z,9.67
2023-05-15T20:14:38.684Z,16.13
2023-05-15T20:17:41.451Z,10.23
2023-05-15T20:20:44.695Z,11.20
2023-05-15T20:23:49.053Z,11.90
2023-05-15T20:26:53.019Z,18.67
2023-05-15T20:29:55.601Z,10.47
2023-05-15T20:32:58.268Z,9.53
2023-05-15T20:36:00.944Z,9.93
2023-05-15T20:39:07.067Z,10.53
2023-05-15T20:42:11.116Z,12.27
2023-05-15T20:45:13.802Z,11.37
2023-05-15T20:48:16.403Z,12.73
2023-05-15T20:51:19.034Z,13.57
2023-05-15T20:54:21.618Z,12.67
2023-05-15T20:57:25.637Z,10.03
2023-05-15T21:00:28.463Z,10.53
2023-05-15T21:03:31.400Z,13.13
2023-05-15T21:06:34.160Z,11.13
2023-05-15T21:09:36.853Z,11.07
2023-05-15T21:12:40.885Z,12.13
2023-05-15T21:15:43.499Z,12.80
2023-05-15T21:18:46.205Z,18.70
2023-05-15T21:21:48.893Z,13.30
2023-05-15T21:24:51.559Z,13.70
2023-05-15T21:27:55.588Z,19.53
2023-05-15T21:30:58.349Z,12.60
2023-05-15T21:34:00.986Z,12.30
2023-05-15T21:37:03.699Z,21.50
2023-05-15T21:40:07.144Z,12.60
2023-05-15T21:43:11.500Z,17.77
2023-05-15T21:46:14.136Z,15.30
2023-05-15T21:49:16.762Z,17.90
2023-05-15T21:52:19.362Z,14.73
2023-05-15T21:55:21.956Z,14.03
2023-05-15T21:58:25.931Z,13.73
2023-05-15T22:01:28.644Z,11.73
2023-05-15T22:04:31.323Z,15.40
2023-05-15T22:07:33.905Z,13.63
2023-05-15T22:10:36.653Z,9.70
2023-05-15T22:13:40.743Z,13.87
2023-05-15T22:16:43.365Z,13.50
2023-05-15T22:19:46.216Z,9.50
2023-05-15T22:22:48.911Z,11.50
2023-05-15T22:25:51.486Z,25.27
2023-05-15T22:28:56.566Z,10.70
2023-05-15T22:31:59.248Z,10.77
2023-05-15T22:35:02.140Z,14.53
2023-05-15T22:38:06.860Z,12.50
2023-05-15T22:41:09.724Z,11.07
2023-05-15T22:44:13.857Z,9.90
2023-05-15T22:47:16.506Z,10.63
2023-05-15T22:50:19.126Z,8.60
2023-05-15T22:53:21.744Z,9.90
2023-05-15T22:56:24.314Z,15.80
2023-05-15T22:59:28.339Z,10.53
2023-05-15T23:02:31.003Z,7.07
2023-05-15T23:05:33.700Z,11.23
2023-05-15T23:08:36.314Z,6.80
2023-05-15T23:11:39.164Z,7.77
2023-05-15T23:14:43.101Z,9.57
2023-05-15T23:17:45.920Z,11.93
2023-05-15T23:20:48.552Z,13.07
2023-05-15T23:23:51.517Z,12.70
2023-05-15T23:26:54.096Z,9.57
2023-05-15T23:29:58.077Z,13.17
2023-05-15T23:33:00.838Z,10.80
2023-05-15T23:36:03.566Z,13.63
2023-05-15T23:39:06.166Z,8.27
2023-05-15T23:42:09.934Z,11.13
2023-05-15T23:45:14.992Z,9.37
2023-05-15T23:48:17.842Z,11.40
2023-05-15T23:51:21.119Z,12.03
2023-05-15T23:54:23.727Z,13.67
2023-05-15T23:57:26.518Z,13.07
